createdAt,value
2023-03-06T00:01:27.371Z,36.92
2023-03-06T00:03:57.591Z,36.83
2023-03-06T00:06:27.758Z,36.94
2023-03-06T00:08:58.683Z,36.97
2023-03-06T00:11:31.111Z,36.85
2023-03-06T00:14:01.769Z,36.94
2023-03-06T00:16:31.953Z,36.88
2023-03-06T00:19:02.467Z,36.97
2023-03-06T00:21:33.006Z,36.99
2023-03-06T00:24:03.808Z,36.97
2023-03-06T00:26:36.431Z,36.76
2023-03-06T00:29:06.305Z,36.92
2023-03-06T00:31:36.773Z,36.88
2023-03-06T00:34:06.779Z,37.32
2023-03-06T00:36:36.551Z,37.06
2023-03-06T00:39:06.852Z,36.97
2023-03-06T00:41:39.469Z,37.03
2023-03-06T00:44:10.408Z,37.27
2023-03-06T00:46:41.301Z,37.19
2023-03-06T00:49:12.666Z,37.14
2023-03-06T00:51:43.456Z,37.00
2023-03-06T00:54:13.589Z,37.32
2023-03-06T00:56:46.493Z,36.99
2023-03-06T00:59:16.398Z,37.43
2023-03-06T01:01:46.398Z,37.18
2023-03-06T01:04:17.616Z,37.45
2023-03-06T01:06:47.716Z,37.54
2023-03-06T01:09:17.549Z,37.42
2023-03-06T01:11:50.115Z,37.48
2023-03-06T01:14:21.806Z,37.56
2023-03-06T01:16:52.631Z,37.62
2023-03-06T01:19:23.577Z,37.78
2023-03-06T01:21:54.163Z,37.50
2023-03-06T01:24:26.351Z,37.67
2023-03-06T01:26:57.820Z,37.71
2023-03-06T01:29:28.110Z,37.82
2023-03-06T01:31:58.688Z,37.73
2023-03-06T01:34:29.686Z,37.78
2023-03-06T01:36:59.874Z,37.67
2023-03-06T01:39:32.078Z,37.61
2023-03-06T01:42:04.054Z,37.70
2023-03-06T01:44:34.834Z,37.71
2023-03-06T01:47:04.873Z,37.62
2023-03-06T01:49:39.542Z,37.86
2023-03-06T01:52:17.030Z,37.91
2023-03-06T01:54:53.706Z,37.82
2023-03-06T01:57:30.817Z,37.67
2023-03-06T02:00:11.299Z,37.68
2023-03-06T02:02:44.710Z,37.79
2023-03-06T02:05:16.256Z,37.92
2023-03-06T02:07:48.987Z,37.91
2023-03-06T02:10:24.358Z,38.08
2023-03-06T02:12:57.389Z,38.04
2023-03-06T02:15:30.820Z,38.05
2023-03-06T02:18:03.084Z,37.99
2023-03-06T02:20:42.638Z,38.02
2023-03-06T02:23:23.000Z,37.84
2023-03-06T02:25:57.680Z,38.24
2023-03-06T02:28:29.286Z,37.97
2023-03-06T02:31:01.255Z,37.92
2023-03-06T02:33:35.557Z,38.20
2023-03-06T02:36:08.763Z,38.10
2023-03-06T02:38:52.600Z,38.18
2023-03-06T02:41:26.011Z,38.16
2023-03-06T02:43:57.130Z,38.24
2023-03-06T02:46:27.789Z,38.02
2023-03-06T02:48:58.421Z,38.10
2023-03-06T02:51:30.019Z,37.98
2023-03-06T02:54:00.641Z,38.31
2023-03-06T02:56:32.661Z,38.34
2023-03-06T02:59:02.745Z,38.33
2023-03-06T03:01:32.882Z,38.32
2023-03-06T03:04:04.271Z,38.64
2023-03-06T03:06:39.049Z,38.58
2023-03-06T03:09:09.558Z,38.37
2023-03-06T03:11:42.218Z,38.48
2023-03-06T03:14:12.101Z,38.43
2023-03-06T03:16:47.648Z,38.67
2023-03-06T03:19:17.637Z,38.44
2023-03-06T03:21:48.580Z,38.47
2023-03-06T03:24:18.726Z,38.56
2023-03-06T03:26:51.496Z,38.52
2023-03-06T03:29:22.457Z,38.68
2023-03-06T03:31:53.259Z,38.52
2023-03-06T03:34:24.877Z,38.50
2023-03-06T03:36:55.361Z,38.59
2023-03-06T03:39:26.590Z,38.46
2023-03-06T03:41:58.619Z,38.55
2023-03-06T03:44:28.723Z,38.45
2023-03-06T03:46:59.303Z,38.67
2023-03-06T03:49:30.085Z,38.37
2023-03-06T03:52:01.203Z,38.14
2023-03-06T03:54:32.046Z,38.40
2023-03-06T03:57:04.681Z,38.65
2023-03-06T03:59:35.240Z,38.59
2023-03-06T04:02:06.312Z,38.60
2023-03-06T04:04:37.020Z,38.43
2023-03-06T04:07:08.064Z,38.53
2023-03-06T04:09:38.975Z,38.41
2023-03-06T04:12:12.518Z,38.51
2023-03-06T04:14:49.574Z,38.52
2023-03-06T04:17:19.436Z,38.67
2023-03-06T04:19:50.493Z,38.55
2023-03-06T04:22:20.679Z,38.55
2023-03-06T04:24:51.104Z,38.64
2023-03-06T04:27:23.980Z,38.40
2023-03-06T04:29:58.429Z,38.49
2023-03-06T04:32:28.805Z,38.29
2023-03-06T04:35:00.337Z,38.46
2023-03-06T04:37:32.222Z,38.54
2023-03-06T04:40:03.867Z,38.63
2023-03-06T04:42:37.041Z,38.60
2023-03-06T04:45:11.065Z,38.61
2023-03-06T04:47:41.793Z,38.52
2023-03-06T04:50:14.389Z,38.72
2023-03-06T04:52:47.236Z,38.52
2023-03-06T04:55:21.149Z,38.79
2023-03-06T04:57:53.240Z,38.87
2023-03-06T05:00:29.881Z,38.56
2023-03-06T05:03:02.400Z,38.83
2023-03-06T05:05:33.562Z,38.62
2023-03-06T05:08:04.198Z,38.71
2023-03-06T05:10:35.539Z,38.65
2023-03-06T05:13:08.733Z,38.78
2023-03-06T05:15:39.611Z,38.69
2023-03-06T05:18:10.736Z,38.59
2023-03-06T05:20:41.348Z,38.64
2023-03-06T05:23:12.620Z,38.65
2023-03-06T05:25:43.366Z,38.50
2023-03-06T05:28:15.393Z,38.60
2023-03-06T05:30:45.393Z,38.62
2023-03-06T05:33:16.716Z,38.43
2023-03-06T05:35:48.813Z,38.58
2023-03-06T05:38:23.622Z,38.59
2023-03-06T05:40:53.574Z,38.98
2023-03-06T05:43:26.240Z,38.76
2023-03-06T05:46:04.918Z,38.86
2023-03-06T05:48:36.571Z,38.96
2023-03-06T05:51:09.590Z,38.93
2023-03-06T05:53:40.725Z,38.96
2023-03-06T05:56:14.045Z,38.96
2023-03-06T05:58:47.013Z,38.77
2023-03-06T06:01:20.949Z,38.59
2023-03-06T06:03:51.880Z,38.57
2023-03-06T06:06:23.347Z,38.36
2023-03-06T06:08:53.686Z,38.23
2023-03-06T06:11:23.934Z,38.48
2023-03-06T06:13:56.874Z,38.39
2023-03-06T06:16:27.840Z,38.26
2023-03-06T06:19:00.588Z,38.27
2023-03-06T06:21:31.578Z,38.41
2023-03-06T06:24:01.549Z,38.15
2023-03-06T06:26:32.208Z,38.10
2023-03-06T06:29:07.660Z,38.17
2023-03-06T06:31:38.745Z,38.01
2023-03-06T06:34:11.169Z,37.98
2023-03-06T06:36:42.287Z,38.07
2023-03-06T06:39:18.159Z,37.75
2023-03-06T06:42:05.665Z,37.94
2023-03-06T06:44:43.413Z,37.96
2023-03-06T06:47:24.426Z,37.90
2023-03-06T06:49:57.401Z,38.14
2023-03-06T06:52:28.248Z,38.16
2023-03-06T06:54:59.628Z,38.03
2023-03-06T06:57:50.990Z,37.89
2023-03-06T07:00:28.395Z,37.85
2023-03-06T07:02:59.674Z,37.97
2023-03-06T07:05:30.581Z,38.02
2023-03-06T07:08:01.504Z,37.92
2023-03-06T07:10:32.328Z,37.85
2023-03-06T07:13:02.502Z,37.88
2023-03-06T07:15:35.274Z,37.67
2023-03-06T07:18:06.172Z,37.54
2023-03-06T07:20:37.693Z,37.25
2023-03-06T07:23:10.593Z,36.93
2023-03-06T07:25:42.003Z,36.93
2023-03-06T07:28:12.973Z,37.32
2023-03-06T07:30:46.755Z,36.82
2023-03-06T07:33:20.260Z,37.07
2023-03-06T07:35:51.794Z,37.08
2023-03-06T07:38:21.866Z,37.04
2023-03-06T07:40:54.742Z,36.78
2023-03-06T07:43:26.012Z,37.24
2023-03-06T07:46:03.355Z,37.41
2023-03-06T07:48:34.593Z,37.01
2023-03-06T07:51:08.347Z,37.09
2023-03-06T07:53:39.705Z,36.88
2023-03-06T07:56:12.428Z,36.81
2023-03-06T07:58:47.564Z,36.77
2023-03-06T08:01:24.836Z,36.79
2023-03-06T08:03:57.023Z,37.09
2023-03-06T08:06:30.539Z,36.75
2023-03-06T08:09:01.842Z,36.69
2023-03-06T08:11:33.807Z,36.61
2023-03-06T08:14:04.560Z,37.02
2023-03-06T08:16:36.935Z,36.76
2023-03-06T08:19:07.984Z,36.52
2023-03-06T08:21:38.668Z,36.50
2023-03-06T08:24:10.117Z,36.58
2023-03-06T08:26:41.422Z,36.56
2023-03-06T08:29:14.448Z,36.48
2023-03-06T08:31:49.120Z,36.45
2023-03-06T08:34:24.862Z,36.69
2023-03-06T08:36:56.521Z,36.81
2023-03-06T08:39:28.239Z,36.61
2023-03-06T08:41:58.780Z,36.79
2023-03-06T08:44:29.200Z,36.76
2023-03-06T08:47:02.314Z,36.75
2023-03-06T08:49:34.377Z,36.34
2023-03-06T08:52:06.385Z,36.52
2023-03-06T08:54:39.255Z,36.33
2023-03-06T08:57:11.101Z,36.39
2023-03-06T08:59:42.600Z,36.05
2023-03-06T09:02:19.046Z,36.24
2023-03-06T09:04:53.374Z,36.24
2023-03-06T09:07:28.132Z,36.14
2023-03-06T09:10:00.383Z,36.23
2023-03-06T09:12:40.411Z,36.30
2023-03-06T09:15:20.098Z,35.80
2023-03-06T09:17:54.733Z,36.35
2023-03-06T09:20:26.286Z,36.50
2023-03-06T09:22:58.688Z,36.27
2023-03-06T09:25:30.514Z,36.26
2023-03-06T09:28:11.226Z,36.14
2023-03-06T09:30:44.636Z,36.23
2023-03-06T09:33:25.705Z,36.07
2023-03-06T09:36:04.434Z,36.53
2023-03-06T09:38:42.491Z,36.33
2023-03-06T09:41:35.315Z,36.15
2023-03-06T09:44:16.491Z,36.32
2023-03-06T09:47:14.213Z,35.94
2023-03-06T09:50:07.353Z,36.02
2023-03-06T09:52:48.160Z,35.99
2023-03-06T09:55:23.924Z,35.80
2023-03-06T09:58:02.775Z,36.03
2023-03-06T10:00:43.054Z,35.71
2023-03-06T10:03:30.460Z,36.09
2023-03-06T10:06:20.765Z,35.96
2023-03-06T10:09:01.834Z,35.63
2023-03-06T10:11:44.073Z,35.90
2023-03-06T10:14:39.913Z,35.64
2023-03-06T10:17:18.701Z,35.74
2023-03-06T10:19:49.775Z,35.66
2023-03-06T10:22:33.625Z,35.32
2023-03-06T10:25:23.517Z,35.27
2023-03-06T10:28:04.243Z,35.42
2023-03-06T10:30:48.452Z,35.62
2023-03-06T10:33:36.533Z,35.50
2023-03-06T10:36:10.932Z,35.14
2023-03-06T10:38:45.924Z,35.45
2023-03-06T10:41:28.286Z,34.94
2023-03-06T10:44:24.051Z,34.98
2023-03-06T10:46:58.041Z,35.10
2023-03-06T10:56:00.305Z,34.88
2023-03-06T10:58:41.121Z,35.12
2023-03-06T11:01:23.538Z,35.10
2023-03-06T11:03:55.769Z,34.85
2023-03-06T11:06:36.670Z,35.05
2023-03-06T11:09:27.159Z,35.07
2023-03-06T11:12:25.522Z,34.71
2023-03-06T11:15:21.622Z,34.56
2023-03-06T11:17:58.139Z,34.42
2023-03-06T11:20:50.627Z,35.21
2023-03-06T11:23:31.522Z,34.93
2023-03-06T11:26:12.601Z,34.79
2023-03-06T11:28:51.354Z,35.05
2023-03-06T11:31:26.693Z,34.79
2023-03-06T11:34:04.381Z,34.94
2023-03-06T11:36:46.822Z,34.78
2023-03-06T11:39:31.458Z,34.75
2023-03-06T11:42:12.891Z,34.92
2023-03-06T11:45:00.349Z,34.81
2023-03-06T11:47:37.755Z,34.53
2023-03-06T11:50:24.384Z,34.73
2023-03-06T11:52:59.530Z,34.76
2023-03-06T11:55:46.780Z,34.62
2023-03-06T11:58:56.524Z,34.82
2023-03-06T12:01:38.916Z,34.99
2023-03-06T12:04:56.262Z,35.38
2023-03-06T12:07:34.158Z,35.20
2023-03-06T12:10:19.493Z,35.01
2023-03-06T12:16:24.837Z,35.34
2023-03-06T12:19:15.405Z,34.70
2023-03-06T12:22:05.458Z,34.95
2023-03-06T12:25:19.909Z,34.96
2023-03-06T12:28:15.027Z,34.99
2023-03-06T12:31:25.378Z,34.88
2023-03-06T12:34:33.391Z,35.11
2023-03-06T12:37:22.756Z,35.18
2023-03-06T12:40:45.088Z,35.32
2023-03-06T12:44:06.485Z,34.87
2023-03-06T12:46:42.587Z,35.53
2023-03-06T12:49:32.040Z,35.16
2023-03-06T12:52:06.842Z,34.90
2023-03-06T12:54:45.950Z,35.21
2023-03-06T12:57:18.546Z,35.08
2023-03-06T12:59:51.745Z,34.91
2023-03-06T13:03:08.574Z,35.23
2023-03-06T13:06:44.937Z,35.35
2023-03-06T13:09:29.347Z,35.42
2023-03-06T13:12:38.616Z,35.34
2023-03-06T13:16:09.044Z,35.26
2023-03-06T13:19:21.834Z,35.21
2023-03-06T13:22:34.003Z,35.36
2023-03-06T13:25:52.585Z,35.43
2023-03-06T13:28:53.093Z,35.31
2023-03-06T13:31:51.497Z,35.18
2023-03-06T13:34:41.087Z,35.25
2023-03-06T13:37:56.308Z,35.18
2023-03-06T13:40:38.882Z,35.30
2023-03-06T13:43:28.154Z,35.48
2023-03-06T13:45:59.538Z,35.42
2023-03-06T13:48:44.623Z,35.34
2023-03-06T13:51:30.004Z,35.37
2023-03-06T13:54:39.836Z,35.31
2023-03-06T13:58:01.419Z,35.18
2023-03-06T14:01:29.873Z,35.24
2023-03-06T14:04:37.410Z,35.18
2023-03-06T14:07:25.043Z,35.20
2023-03-06T14:10:23.514Z,35.21
2023-03-06T14:13:11.750Z,35.36
2023-03-06T14:15:50.956Z,35.17
2023-03-06T14:18:29.641Z,35.04
2023-03-06T14:21:04.964Z,35.17
2023-03-06T14:23:42.855Z,35.04
2023-03-06T14:26:18.516Z,34.85
2023-03-06T14:29:00.643Z,34.96
2023-03-06T14:31:40.699Z,34.90
2023-03-06T14:34:20.549Z,35.01
2023-03-06T14:36:58.002Z,34.79
2023-03-06T14:39:45.167Z,34.89
2023-03-06T14:42:25.541Z,34.97
2023-03-06T14:45:23.585Z,35.09
2023-03-06T14:48:08.305Z,34.97
2023-03-06T14:50:55.283Z,35.09
2023-03-06T14:53:42.846Z,34.87
2023-03-06T14:56:22.153Z,34.95
2023-03-06T14:58:59.874Z,34.84
2023-03-06T15:01:37.615Z,35.00
2023-03-06T15:04:22.142Z,34.77
2023-03-06T15:07:05.212Z,34.93
2023-03-06T15:09:41.106Z,34.83
2023-03-06T15:12:39.261Z,34.84
2023-03-06T15:15:31.824Z,35.02
2023-03-06T15:18:03.978Z,35.00
2023-03-06T15:20:46.664Z,35.06
2023-03-06T15:23:27.105Z,35.15
2023-03-06T15:26:03.662Z,34.73
2023-03-06T15:28:42.893Z,34.95
2023-03-06T15:31:33.725Z,35.01
2023-03-06T15:34:24.404Z,35.21
2023-03-06T15:37:00.351Z,35.24
2023-03-06T15:39:40.773Z,35.17
2023-03-06T15:42:24.118Z,34.85
2023-03-06T15:44:57.551Z,35.15
2023-03-06T15:47:28.448Z,35.14
2023-03-06T15:50:00.099Z,35.18
2023-03-06T15:52:30.865Z,35.03
2023-03-06T15:55:01.695Z,34.95
2023-03-06T15:57:32.422Z,35.12
2023-03-06T16:00:04.546Z,35.17
2023-03-06T16:03:29.619Z,35.15
2023-03-06T16:06:02.068Z,35.47
2023-03-06T16:08:32.713Z,35.01
2023-03-06T16:11:03.034Z,35.07
2023-03-06T16:13:33.441Z,35.13
2023-03-06T16:16:04.636Z,35.21
2023-03-06T16:18:35.696Z,35.09
2023-03-06T16:21:08.738Z,35.09
2023-03-06T16:23:40.552Z,35.48
2023-03-06T16:26:22.225Z,35.42
2023-03-06T16:28:53.738Z,35.15
2023-03-06T16:31:24.068Z,35.15
2023-03-06T16:33:54.887Z,35.25
2023-03-06T16:36:31.146Z,35.28
2023-03-06T16:39:01.617Z,35.25
2023-03-06T16:41:31.552Z,35.40
2023-03-06T16:44:01.794Z,35.51
2023-03-06T16:46:32.555Z,35.55
2023-03-06T16:49:02.992Z,35.53
2023-03-06T16:51:34.673Z,35.50
2023-03-06T16:54:04.788Z,35.43
2023-03-06T16:56:35.423Z,35.52
2023-03-06T16:59:06.095Z,35.62
2023-03-06T17:01:36.850Z,35.53
2023-03-06T17:04:07.492Z,35.58
2023-03-06T17:06:39.329Z,35.56
2023-03-06T17:09:11.206Z,35.63
2023-03-06T17:11:43.511Z,35.77
2023-03-06T17:14:14.134Z,35.54
2023-03-06T17:16:44.768Z,35.60
2023-03-06T17:19:17.262Z,35.57
2023-03-06T17:21:50.381Z,35.50
2023-03-06T17:24:20.037Z,35.83
2023-03-06T17:26:50.175Z,35.63
2023-03-06T17:29:20.907Z,35.56
2023-03-06T17:31:51.566Z,35.70
2023-03-06T17:34:24.279Z,35.94
2023-03-06T17:36:57.132Z,35.75
2023-03-06T17:39:27.627Z,35.77
2023-03-06T17:41:58.244Z,35.61
2023-03-06T17:44:28.351Z,35.68
2023-03-06T17:46:58.762Z,35.94
2023-03-06T17:49:29.191Z,35.61
2023-03-06T17:52:03.993Z,35.85
2023-03-06T17:54:35.628Z,35.56
2023-03-06T17:57:06.371Z,35.74
2023-03-06T17:59:37.021Z,35.94
2023-03-06T18:02:08.228Z,35.71
2023-03-06T18:04:38.686Z,35.76
2023-03-06T18:07:11.860Z,35.88
2023-03-06T18:09:44.873Z,35.68
2023-03-06T18:12:15.362Z,35.86
2023-03-06T18:14:46.605Z,36.04
2023-03-06T18:17:17.429Z,35.80
2023-03-06T18:19:48.369Z,35.80
2023-03-06T18:22:20.633Z,36.17
2023-03-06T18:24:51.093Z,35.79
2023-03-06T18:27:22.385Z,36.07
2023-03-06T18:29:55.861Z,35.96
2023-03-06T18:32:26.511Z,35.89
2023-03-06T18:34:57.521Z,36.04
2023-03-06T18:37:29.747Z,36.07
2023-03-06T18:40:00.163Z,35.85
2023-03-06T18:42:30.347Z,36.18
2023-03-06T18:45:00.534Z,36.11
2023-03-06T18:47:31.289Z,36.08
2023-03-06T18:50:03.253Z,36.02
2023-03-06T18:52:38.742Z,36.43
2023-03-06T18:55:10.359Z,36.19
2023-03-06T18:57:41.322Z,36.07
2023-03-06T19:00:14.287Z,35.92
2023-03-06T19:02:45.869Z,36.28
2023-03-06T19:05:17.947Z,36.05
2023-03-06T19:07:52.770Z,36.19
2023-03-06T19:10:23.086Z,36.09
2023-03-06T19:12:55.169Z,36.19
2023-03-06T19:15:27.425Z,35.98
2023-03-06T19:17:58.344Z,36.20
2023-03-06T19:20:31.589Z,35.88
2023-03-06T19:23:04.605Z,36.26
2023-03-06T19:25:35.883Z,35.88
2023-03-06T19:28:09.991Z,36.22
2023-03-06T19:30:44.834Z,36.10
2023-03-06T19:33:16.929Z,36.07
2023-03-06T19:35:48.303Z,35.98
2023-03-06T19:38:22.503Z,36.22
2023-03-06T19:40:54.517Z,36.15
2023-03-06T19:43:25.313Z,36.25
2023-03-06T19:45:56.902Z,36.04
2023-03-06T19:48:28.180Z,36.14
2023-03-06T19:50:58.984Z,36.32
2023-03-06T19:53:32.355Z,36.26
2023-03-06T19:56:08.332Z,36.22
2023-03-06T19:58:41.114Z,36.34
2023-03-06T20:01:15.151Z,36.14
2023-03-06T20:03:45.999Z,36.10
2023-03-06T20:06:19.476Z,35.97
2023-03-06T20:08:51.684Z,36.29
2023-03-06T20:11:24.839Z,36.16
2023-03-06T20:13:56.171Z,36.25
2023-03-06T20:16:28.332Z,36.23
2023-03-06T20:19:00.474Z,36.15
2023-03-06T20:21:32.953Z,36.61
2023-03-06T20:24:04.701Z,36.63
2023-03-06T20:26:37.483Z,36.34
2023-03-06T20:29:07.944Z,36.29
2023-03-06T20:31:38.430Z,36.35
2023-03-06T20:34:09.270Z,36.39
2023-03-06T20:36:42.635Z,36.42
2023-03-06T20:39:17.456Z,36.39
2023-03-06T20:41:48.330Z,36.26
2023-03-06T20:44:21.803Z,36.29
2023-03-06T20:46:52.448Z,36.27
2023-03-06T20:49:22.655Z,36.21
2023-03-06T20:51:53.274Z,36.31
2023-03-06T20:54:25.437Z,36.16
2023-03-06T20:56:55.413Z,36.08
2023-03-06T20:59:26.225Z,35.91
2023-03-06T21:01:56.181Z,36.07
2023-03-06T21:04:27.109Z,36.22
2023-03-06T21:06:57.516Z,36.08
2023-03-06T21:09:30.185Z,36.04
2023-03-06T21:12:00.652Z,35.97
2023-03-06T21:14:31.629Z,36.03
2023-03-06T21:17:02.393Z,36.22
2023-03-06T21:19:32.984Z,35.91
2023-03-06T21:22:03.576Z,35.79
2023-03-06T21:24:35.812Z,36.08
2023-03-06T21:27:06.736Z,35.71
2023-03-06T21:29:37.415Z,35.98
2023-03-06T21:32:11.500Z,35.89
2023-03-06T21:34:42.488Z,35.82
2023-03-06T21:37:12.330Z,35.90
2023-03-06T21:39:45.083Z,35.97
2023-03-06T21:42:15.654Z,35.79
2023-03-06T21:44:47.143Z,35.75
2023-03-06T21:47:17.646Z,35.92
2023-03-06T21:49:50.483Z,35.89
2023-03-06T21:52:21.180Z,35.64
2023-03-06T21:54:54.288Z,35.94
2023-03-06T21:57:24.791Z,35.56
2023-03-06T21:59:55.355Z,36.15
2023-03-06T22:02:25.852Z,36.25
2023-03-06T22:04:56.135Z,36.07
2023-03-06T22:07:27.683Z,35.73
2023-03-06T22:09:59.713Z,35.83
2023-03-06T22:12:30.637Z,35.76
2023-03-06T22:15:01.189Z,35.73
2023-03-06T22:17:32.420Z,35.87
2023-03-06T22:20:02.914Z,35.70
2023-03-06T22:22:34.063Z,35.78
2023-03-06T22:25:08.560Z,35.88
2023-03-06T22:27:38.504Z,36.00
2023-03-06T22:30:10.686Z,35.66
2023-03-06T22:32:41.270Z,35.63
2023-03-06T22:35:12.515Z,35.67
2023-03-06T22:37:42.440Z,35.72
2023-03-06T22:40:16.248Z,36.04
2023-03-06T22:42:46.724Z,35.99
2023-03-06T22:45:16.736Z,35.76
2023-03-06T22:47:47.538Z,35.92
2023-03-06T22:50:17.384Z,35.92
2023-03-06T22:52:47.945Z,36.00
2023-03-06T22:55:20.113Z,36.01
2023-03-06T22:57:50.613Z,35.94
2023-03-06T23:00:22.299Z,36.06
2023-03-06T23:02:52.765Z,36.05
2023-03-06T23:05:23.736Z,36.11
2023-03-06T23:07:54.855Z,36.02
2023-03-06T23:10:26.574Z,35.88
2023-03-06T23:12:57.103Z,36.15
2023-03-06T23:15:27.532Z,36.06
2023-03-06T23:17:58.048Z,36.11
2023-03-06T23:20:28.923Z,36.42
2023-03-06T23:22:58.940Z,36.25
2023-03-06T23:25:31.792Z,36.22
2023-03-06T23:28:02.295Z,36.34
2023-03-06T23:30:32.609Z,36.20
2023-03-06T23:33:03.552Z,36.04
2023-03-06T23:35:35.857Z,35.98
2023-03-06T23:38:06.921Z,36.23
2023-03-06T23:40:40.386Z,36.39
2023-03-06T23:43:10.923Z,36.46
2023-03-06T23:45:41.495Z,36.13
2023-03-06T23:48:11.843Z,36.40
2023-03-06T23:50:43.185Z,36.65
2023-03-06T23:53:13.744Z,36.37
2023-03-06T23:55:46.815Z,36.28
2023-03-06T23:58:19.424Z,36.53
